Time;durP1;ratioP1;P1;durP2;ratioP2;P2;SDS_P1;SDS_P2;PMS_P1;PMS_P2;Temp;Humidity;BMP_temperature;BMP_pressure;BME280_temperature;BME280_humidity;BME280_pressure;Samples;Min_cycle;Max_cycle;Signal;HPM_P1;HPM_P2
2022/10/17 00:02:09;;;;;;;;;;;28.10;99.90;;;;;;5032699;28;19955;-51
2022/10/17 00:04:35;;;;;;;;;;;28.10;99.90;;;;;;5032701;28;19935;-53
2022/10/17 00:07:01;;;;;;;;;;;28.00;99.90;;;;;;5032392;28;19928;-52
2022/10/17 00:09:26;;;;;;;;;;;28.00;99.90;;;;;;5032347;28;19912;-52
2022/10/17 00:11:52;;;;;;;;;;;28.00;99.90;;;;;;5032497;28;19999;-52
2022/10/17 00:14:17;;;;;;;;;;;28.00;99.90;;;;;;5032439;28;19911;-52
2022/10/17 00:16:43;;;;;;;;;;;28.00;99.90;;;;;;5032117;28;20004;-52
2022/10/17 00:19:08;;;;;;;;;;;28.00;99.90;;;;;;5032609;28;19920;-52
2022/10/17 00:21:34;;;;;;;;;;;28.00;99.90;;;;;;5032559;28;19905;-52
2022/10/17 00:24:00;;;;;;;;;;;28.00;99.90;;;;;;5032607;28;19999;-52
2022/10/17 00:26:27;;;;;;;;;;;28.00;99.90;;;;;;5032736;28;20353;-52
2022/10/17 00:28:53;;;;;;;;;;;28.00;99.90;;;;;;5032365;28;19905;-53
2022/10/17 00:31:19;;;;;;;;;;;28.00;99.90;;;;;;5032219;28;19987;-52
2022/10/17 00:33:45;;;;;;;;;;;28.00;99.90;;;;;;5032342;28;19974;-52
2022/10/17 00:36:14;;;;;;;;;;;28.00;99.90;;;;;;5032325;28;20349;-51
2022/10/17 00:38:41;;;;;;;;;;;28.00;99.90;;;;;;5032049;28;20460;-52
2022/10/17 00:41:07;;;;;;;;;;;28.00;99.90;;;;;;5031949;28;19996;-52
2022/10/17 00:43:51;;;;;;;;;;;28.00;99.90;;;;;;5032067;28;19910;-51
2022/10/17 00:46:18;;;;;;;;;;;28.00;99.90;;;;;;5031911;28;19952;-52
2022/10/17 00:48:43;;;;;;;;;;;28.00;99.90;;;;;;5031999;28;19905;-51
2022/10/17 00:51:09;;;;;;;;;;;27.90;99.90;;;;;;5032205;28;19905;-51
2022/10/17 00:53:36;;;;;;;;;;;27.90;99.90;;;;;;5031757;28;19979;-51
2022/10/17 00:56:01;;;;;;;;;;;27.90;99.90;;;;;;5031878;28;19913;-52
2022/10/17 00:58:27;;;;;;;;;;;27.90;99.90;;;;;;5031711;28;19913;-52
2022/10/17 01:00:53;;;;;;;;;;;27.90;99.90;;;;;;5044235;22;19921;-58
2022/10/17 01:03:18;;;;;;;;;;;27.90;99.90;;;;;;5031980;28;20373;-59
2022/10/17 01:05:45;;;;;;;;;;;27.90;99.90;;;;;;5032042;28;19915;-58
2022/10/17 01:08:11;;;;;;;;;;;27.90;99.90;;;;;;5031880;28;19909;-58
2022/10/17 01:11:00;;;;;;;;;;;27.90;99.90;;;;;;5031794;28;20381;-59
2022/10/17 01:13:31;;;;;;;;;;;27.90;99.90;;;;;;5028492;28;20357;-58
2022/10/17 01:16:08;;;;;;;;;;;27.90;99.90;;;;;;5031768;28;19917;-59
2022/10/17 01:18:40;;;;;;;;;;;27.90;99.90;;;;;;5031771;28;20004;-59
2022/10/17 01:21:14;;;;;;;;;;;27.90;99.90;;;;;;5031883;28;19956;-59
2022/10/17 01:23:59;;;;;;;;;;;27.90;99.90;;;;;;5031976;28;19991;-59
2022/10/17 01:26:24;;;;;;;;;;;27.90;99.90;;;;;;5046904;28;19912;-59
2022/10/17 01:29:08;;;;;;;;;;;27.90;99.90;;;;;;5030736;28;19905;-59
2022/10/17 01:31:42;;;;;;;;;;;27.90;99.90;;;;;;5031579;28;19990;-58
2022/10/17 01:34:20;;;;;;;;;;;27.90;99.90;;;;;;5031447;28;19905;-59
2022/10/17 01:36:49;;;;;;;;;;;27.80;99.90;;;;;;5031545;28;19905;-58
2022/10/17 01:39:20;;;;;;;;;;;27.80;99.90;;;;;;5031575;28;19975;-59
2022/10/17 01:42:06;;;;;;;;;;;27.80;99.90;;;;;;5031640;28;19905;-58
2022/10/17 01:44:35;;;;;;;;;;;27.90;99.90;;;;;;5031044;28;19916;-59
2022/10/17 01:47:03;;;;;;;;;;;27.80;99.90;;;;;;5031362;28;19931;-58
2022/10/17 01:49:30;;;;;;;;;;;27.80;99.90;;;;;;5031260;28;19959;-58
2022/10/17 01:51:59;;;;;;;;;;;27.80;99.90;;;;;;5031256;28;19909;-59
2022/10/17 01:54:35;;;;;;;;;;;27.80;99.90;;;;;;5031319;28;19912;-58
2022/10/17 01:57:04;;;;;;;;;;;27.80;99.90;;;;;;5031375;28;19905;-58
2022/10/17 01:59:35;;;;;;;;;;;27.70;99.90;;;;;;5043285;22;19909;-50
2022/10/17 02:02:01;;;;;;;;;;;27.70;99.90;;;;;;5031278;28;19965;-50
2022/10/17 02:04:27;;;;;;;;;;;27.70;99.90;;;;;;5031131;28;19916;-50
2022/10/17 02:06:53;;;;;;;;;;;27.70;99.90;;;;;;5030928;28;19905;-51
2022/10/17 02:09:25;;;;;;;;;;;27.70;99.90;;;;;;5030927;28;19905;-50
2022/10/17 02:12:01;;;;;;;;;;;27.70;99.90;;;;;;5031039;28;20191;-50
2022/10/17 02:14:27;;;;;;;;;;;27.70;99.90;;;;;;5031016;28;19908;-50
2022/10/17 02:16:55;;;;;;;;;;;27.70;99.90;;;;;;5031086;28;20472;-50
2022/10/17 02:19:24;;;;;;;;;;;27.70;99.90;;;;;;5031014;28;20068;-50
2022/10/17 02:22:06;;;;;;;;;;;27.70;99.90;;;;;;5031128;28;20311;-50
2022/10/17 02:24:37;;;;;;;;;;;27.60;99.90;;;;;;5030941;28;20276;-52
2022/10/17 02:27:07;;;;;;;;;;;27.70;99.90;;;;;;5030874;28;19905;-50
2022/10/17 02:29:43;;;;;;;;;;;27.70;99.90;;;;;;5030806;28;19912;-50
2022/10/17 02:32:13;;;;;;;;;;;27.70;99.90;;;;;;5030878;28;19909;-51
2022/10/17 02:34:47;;;;;;;;;;;27.60;99.90;;;;;;5031124;28;19939;-50
2022/10/17 02:37:14;;;;;;;;;;;27.60;99.90;;;;;;5030931;28;19913;-50
2022/10/17 02:39:41;;;;;;;;;;;27.60;99.90;;;;;;5032333;28;20281;-50
2022/10/17 02:42:09;;;;;;;;;;;27.60;99.90;;;;;;5034360;28;20375;-50
2022/10/17 02:44:36;;;;;;;;;;;27.60;99.90;;;;;;5034409;28;19905;-50
2022/10/17 02:47:05;;;;;;;;;;;27.60;99.90;;;;;;5034268;28;20269;-51
2022/10/17 02:49:35;;;;;;;;;;;27.60;99.90;;;;;;5034134;28;19905;-50
2022/10/17 02:52:04;;;;;;;;;;;27.60;99.90;;;;;;5033977;28;19905;-50
2022/10/17 02:54:33;;;;;;;;;;;27.60;99.90;;;;;;5033997;28;19928;-50
2022/10/17 02:57:06;;;;;;;;;;;27.60;99.90;;;;;;5034006;28;20256;-50
2022/10/17 02:59:33;;;;;;;;;;;27.60;99.90;;;;;;5034147;28;19920;-51
2022/10/17 03:02:01;;;;;;;;;;;27.60;99.90;;;;;;5033838;28;19944;-50
2022/10/17 03:04:27;;;;;;;;;;;27.60;99.90;;;;;;5033934;28;19939;-50
2022/10/17 03:06:52;;;;;;;;;;;27.50;99.90;;;;;;5033546;28;20361;-50
2022/10/17 03:09:18;;;;;;;;;;;27.50;99.90;;;;;;5034264;28;19905;-50
2022/10/17 03:11:44;;;;;;;;;;;27.50;99.90;;;;;;5033625;28;19909;-50
2022/10/17 03:14:09;;;;;;;;;;;27.50;99.90;;;;;;5033654;28;19901;-49
2022/10/17 03:16:35;;;;;;;;;;;27.50;99.90;;;;;;5033702;28;19912;-50
2022/10/17 03:19:01;;;;;;;;;;;27.50;99.90;;;;;;5033531;28;19913;-50
2022/10/17 03:21:26;;;;;;;;;;;27.50;99.90;;;;;;5033612;28;19927;-50
2022/10/17 03:23:52;;;;;;;;;;;27.50;99.90;;;;;;5033445;28;19913;-50
2022/10/17 03:26:17;;;;;;;;;;;27.50;99.90;;;;;;5033698;28;19913;-49
2022/10/17 03:28:43;;;;;;;;;;;27.50;99.90;;;;;;5033797;28;19905;-51
2022/10/17 03:31:09;;;;;;;;;;;27.50;99.90;;;;;;5033399;28;19911;-50
2022/10/17 03:33:36;;;;;;;;;;;27.50;99.90;;;;;;5033581;28;20265;-50
2022/10/17 03:36:06;;;;;;;;;;;27.50;99.90;;;;;;5033420;28;19905;-50
2022/10/17 03:38:32;;;;;;;;;;;27.40;99.90;;;;;;5032018;28;19916;-50
2022/10/17 03:40:57;;;;;;;;;;;27.40;99.90;;;;;;5033340;28;19912;-50
2022/10/17 03:43:23;;;;;;;;;;;27.40;99.90;;;;;;5033180;28;19905;-50
2022/10/17 03:45:49;;;;;;;;;;;27.40;99.90;;;;;;5033271;28;19905;-50
2022/10/17 03:48:14;;;;;;;;;;;27.40;99.90;;;;;;5033066;28;20380;-50
2022/10/17 03:50:40;;;;;;;;;;;27.40;99.90;;;;;;5047278;28;20361;-50
2022/10/17 03:53:05;;;;;;;;;;;27.40;99.90;;;;;;5032966;28;19913;-50
2022/10/17 03:55:31;;;;;;;;;;;27.40;99.90;;;;;;5033016;28;19908;-50
2022/10/17 03:57:56;;;;;;;;;;;27.40;99.90;;;;;;5032842;28;19905;-50
2022/10/17 04:00:22;;;;;;;;;;;27.40;99.90;;;;;;5033360;28;20273;-50
2022/10/17 04:02:48;;;;;;;;;;;27.40;99.90;;;;;;5033308;28;20010;-50
2022/10/17 04:05:13;;;;;;;;;;;27.40;99.90;;;;;;5032855;28;19909;-50
2022/10/17 04:07:39;;;;;;;;;;;27.40;99.90;;;;;;5032691;28;19912;-50
2022/10/17 04:10:05;;;;;;;;;;;27.40;99.90;;;;;;5031304;28;19905;-49
2022/10/17 04:12:30;;;;;;;;;;;27.40;99.90;;;;;;5032740;28;19905;-50
2022/10/17 04:14:56;;;;;;;;;;;27.40;99.90;;;;;;5032516;28;19912;-50
2022/10/17 04:17:21;;;;;;;;;;;27.30;99.90;;;;;;5032605;28;20361;-50
2022/10/17 04:19:50;;;;;;;;;;;27.30;99.90;;;;;;5032503;28;19913;-50
2022/10/17 04:22:15;;;;;;;;;;;27.40;99.90;;;;;;5032609;28;19912;-49
2022/10/17 04:24:41;;;;;;;;;;;27.30;99.90;;;;;;5032435;28;19905;-50
2022/10/17 04:27:07;;;;;;;;;;;27.30;99.90;;;;;;5032369;28;19966;-50
2022/10/17 04:29:32;;;;;;;;;;;27.30;99.90;;;;;;5014691;28;19948;-50
2022/10/17 04:31:58;;;;;;;;;;;27.30;99.90;;;;;;5032384;28;19912;-50
2022/10/17 04:34:24;;;;;;;;;;;27.30;99.90;;;;;;5032450;28;19908;-50
2022/10/17 04:36:50;;;;;;;;;;;27.30;99.90;;;;;;5032128;28;19908;-50
2022/10/17 04:39:16;;;;;;;;;;;27.30;99.90;;;;;;5032113;28;19917;-50
2022/10/17 04:41:41;;;;;;;;;;;27.30;99.90;;;;;;5031953;28;19951;-50
2022/10/17 04:44:09;;;;;;;;;;;27.30;99.90;;;;;;5032168;28;19909;-50
2022/10/17 04:46:34;;;;;;;;;;;27.30;99.90;;;;;;5032167;28;19905;-50
2022/10/17 04:49:00;;;;;;;;;;;27.30;99.90;;;;;;5031898;28;20395;-49
2022/10/17 04:51:25;;;;;;;;;;;27.30;99.90;;;;;;5032216;28;19972;-50
2022/10/17 04:53:51;;;;;;;;;;;27.30;99.90;;;;;;5032128;28;20276;-50
2022/10/17 04:56:18;;;;;;;;;;;27.30;99.90;;;;;;5031787;28;19936;-49
2022/10/17 04:58:44;;;;;;;;;;;27.20;99.90;;;;;;5030500;28;20369;-50
2022/10/17 05:01:11;;;;;;;;;;;27.20;99.90;;;;;;5031647;28;19923;-50
2022/10/17 05:03:37;;;;;;;;;;;27.20;99.90;;;;;;5031390;28;19959;-50
2022/10/17 05:06:06;;;;;;;;;;;27.30;99.90;;;;;;5031808;28;19909;-50
2022/10/17 05:08:31;;;;;;;;;;;27.20;99.90;;;;;;5031799;28;19905;-50
2022/10/17 05:10:57;;;;;;;;;;;27.20;99.90;;;;;;5031779;28;19916;-50
2022/10/17 05:13:22;;;;;;;;;;;27.20;99.90;;;;;;5031862;28;20383;-51
2022/10/17 05:15:48;;;;;;;;;;;27.20;99.90;;;;;;5031804;28;19959;-50
2022/10/17 05:18:14;;;;;;;;;;;27.20;99.90;;;;;;5031596;28;19964;-50
2022/10/17 05:20:39;;;;;;;;;;;27.20;99.90;;;;;;5031576;28;19905;-50
2022/10/17 05:23:05;;;;;;;;;;;27.20;99.90;;;;;;5031530;28;20264;-49
2022/10/17 05:25:30;;;;;;;;;;;27.20;99.90;;;;;;5031627;28;19912;-50
2022/10/17 05:27:56;;;;;;;;;;;27.20;99.90;;;;;;5031811;28;19916;-50
2022/10/17 05:30:22;;;;;;;;;;;27.20;99.90;;;;;;5031389;28;20118;-49
2022/10/17 05:32:50;;;;;;;;;;;27.10;99.90;;;;;;5031411;28;19931;-50
2022/10/17 05:35:16;;;;;;;;;;;27.10;99.90;;;;;;5031516;28;19940;-50
2022/10/17 05:37:41;;;;;;;;;;;27.10;99.90;;;;;;5031344;28;20336;-50
2022/10/17 05:40:07;;;;;;;;;;;27.20;99.90;;;;;;5031360;28;19917;-49
2022/10/17 05:42:32;;;;;;;;;;;27.10;99.90;;;;;;5031480;28;19944;-50
2022/10/17 05:44:58;;;;;;;;;;;27.10;99.90;;;;;;5031403;28;19955;-50
2022/10/17 05:47:24;;;;;;;;;;;27.10;99.90;;;;;;5031473;28;20390;-50
2022/10/17 05:49:50;;;;;;;;;;;27.10;99.90;;;;;;5046575;28;19909;-51
2022/10/17 05:52:15;;;;;;;;;;;27.10;99.90;;;;;;5031059;28;19905;-50
2022/10/17 05:54:41;;;;;;;;;;;27.00;99.90;;;;;;5031248;28;20376;-50
2022/10/17 05:57:06;;;;;;;;;;;27.10;99.90;;;;;;5031196;28;19935;-50
2022/10/17 05:59:32;;;;;;;;;;;27.00;99.90;;;;;;5030957;28;20365;-50
2022/10/17 06:01:57;;;;;;;;;;;27.00;99.90;;;;;;5031249;28;19913;-50
2022/10/17 06:04:23;;;;;;;;;;;27.00;99.90;;;;;;5031120;28;19905;-50
2022/10/17 06:06:49;;;;;;;;;;;27.00;99.90;;;;;;5030981;28;20036;-50
2022/10/17 06:09:14;;;;;;;;;;;27.00;99.90;;;;;;5031146;28;20353;-50
2022/10/17 06:11:40;;;;;;;;;;;27.00;99.90;;;;;;5031052;28;19925;-50
2022/10/17 06:14:05;;;;;;;;;;;27.00;99.90;;;;;;5032106;28;20086;-50
2022/10/17 06:16:31;;;;;;;;;;;27.00;99.90;;;;;;5034947;28;19905;-50
2022/10/17 06:18:57;;;;;;;;;;;27.00;99.90;;;;;;5034786;28;20604;-50
2022/10/17 06:21:24;;;;;;;;;;;26.90;99.90;;;;;;5034656;28;19905;-50
2022/10/17 06:23:50;;;;;;;;;;;27.00;99.90;;;;;;5034689;28;20283;-50
2022/10/17 06:26:16;;;;;;;;;;;27.00;99.90;;;;;;5034627;28;20390;-50
2022/10/17 06:28:41;;;;;;;;;;;26.90;99.90;;;;;;5034553;28;19904;-50
2022/10/17 06:31:11;;;;;;;;;;;26.90;99.90;;;;;;5034555;28;19905;-50
2022/10/17 06:33:37;;;;;;;;;;;26.90;99.90;;;;;;5034573;28;20004;-49
2022/10/17 06:36:04;;;;;;;;;;;26.90;99.90;;;;;;5034355;28;19944;-50
2022/10/17 06:38:30;;;;;;;;;;;26.90;99.90;;;;;;5034462;28;20327;-50
2022/10/17 06:41:09;;;;;;;;;;;26.90;99.90;;;;;;5034287;28;19909;-50
2022/10/17 06:43:35;;;;;;;;;;;26.90;99.90;;;;;;5034273;28;19905;-50
2022/10/17 06:46:01;;;;;;;;;;;26.90;99.90;;;;;;5034670;28;19941;-50
2022/10/17 06:48:27;;;;;;;;;;;26.90;99.90;;;;;;5034421;28;19940;-49
2022/10/17 06:50:52;;;;;;;;;;;26.90;99.90;;;;;;5034176;28;19943;-50
2022/10/17 06:53:18;;;;;;;;;;;26.90;99.90;;;;;;5034171;28;19945;-50
2022/10/17 06:55:44;;;;;;;;;;;26.90;99.90;;;;;;5034227;28;19905;-52
2022/10/17 06:58:09;;;;;;;;;;;26.90;99.90;;;;;;5033991;28;20285;-50
2022/10/17 07:00:35;;;;;;;;;;;26.90;99.90;;;;;;5033931;28;19917;-50
2022/10/17 07:03:00;;;;;;;;;;;26.90;99.90;;;;;;5034077;28;20272;-50
2022/10/17 07:05:26;;;;;;;;;;;26.90;99.90;;;;;;5033939;28;20003;-50
2022/10/17 07:07:51;;;;;;;;;;;26.90;99.90;;;;;;5033867;28;20348;-50
2022/10/17 07:10:17;;;;;;;;;;;26.90;99.90;;;;;;5033798;28;20264;-50
2022/10/17 07:12:44;;;;;;;;;;;26.90;99.90;;;;;;5033814;28;19952;-49
2022/10/17 07:15:10;;;;;;;;;;;26.90;99.90;;;;;;5049092;28;19912;-49
2022/10/17 07:17:36;;;;;;;;;;;26.90;99.90;;;;;;5033602;28;20272;-49
2022/10/17 07:20:01;;;;;;;;;;;26.90;99.90;;;;;;5033877;28;19913;-49
2022/10/17 07:22:27;;;;;;;;;;;26.90;99.90;;;;;;5033561;28;19905;-50
2022/10/17 07:24:53;;;;;;;;;;;27.00;99.90;;;;;;5033280;28;19909;-50
2022/10/17 07:27:18;;;;;;;;;;;27.00;99.90;;;;;;5033533;28;19905;-50
2022/10/17 07:29:44;;;;;;;;;;;27.00;99.90;;;;;;5033336;28;20322;-49
2022/10/17 07:32:09;;;;;;;;;;;27.00;99.90;;;;;;5033369;28;19980;-49
2022/10/17 07:34:35;;;;;;;;;;;27.00;99.90;;;;;;5033500;28;19996;-49
2022/10/17 07:37:01;;;;;;;;;;;27.00;99.90;;;;;;5032204;28;20027;-50
2022/10/17 07:39:27;;;;;;;;;;;27.00;99.90;;;;;;5033107;28;19928;-50
2022/10/17 07:41:53;;;;;;;;;;;27.10;99.90;;;;;;5033023;28;19905;-49
2022/10/17 07:44:18;;;;;;;;;;;27.10;99.90;;;;;;5033095;28;19915;-49
2022/10/17 07:46:44;;;;;;;;;;;27.10;99.90;;;;;;5033085;28;20341;-50
2022/10/17 07:49:10;;;;;;;;;;;27.10;99.90;;;;;;5033203;28;20272;-50
2022/10/17 07:51:35;;;;;;;;;;;27.10;99.90;;;;;;5032915;28;20008;-50
2022/10/17 07:54:01;;;;;;;;;;;27.10;99.90;;;;;;5032877;28;19905;-50
2022/10/17 07:56:28;;;;;;;;;;;27.20;99.90;;;;;;5032695;28;19975;-49
2022/10/17 07:58:54;;;;;;;;;;;27.20;99.90;;;;;;5032753;28;19913;-50
2022/10/17 08:01:19;;;;;;;;;;;27.20;99.90;;;;;;5032477;28;19971;-49
2022/10/17 08:03:47;;;;;;;;;;;27.20;99.90;;;;;;5032466;28;19909;-50
2022/10/17 08:06:13;;;;;;;;;;;27.20;99.90;;;;;;5032692;28;19950;-49
2022/10/17 08:08:39;;;;;;;;;;;27.20;99.90;;;;;;5032792;28;19905;-50
2022/10/17 08:11:06;;;;;;;;;;;27.20;99.90;;;;;;5032870;28;19911;-50
2022/10/17 08:13:31;;;;;;;;;;;27.30;99.90;;;;;;5032586;28;20268;-50
2022/10/17 08:15:58;;;;;;;;;;;27.30;99.90;;;;;;5032389;28;19984;-49
2022/10/17 08:18:23;;;;;;;;;;;27.20;99.90;;;;;;5032340;28;20007;-49
2022/10/17 08:20:49;;;;;;;;;;;27.30;99.90;;;;;;5032437;28;19963;-50
2022/10/17 08:23:14;;;;;;;;;;;27.30;99.90;;;;;;5030987;28;20011;-49
2022/10/17 08:25:40;;;;;;;;;;;27.30;99.90;;;;;;5031091;28;20035;-50
2022/10/17 08:28:06;;;;;;;;;;;27.30;99.90;;;;;;5032561;28;19905;-53
2022/10/17 08:30:31;;;;;;;;;;;27.30;99.90;;;;;;5032119;28;19909;-50
2022/10/17 08:32:57;;;;;;;;;;;27.30;99.90;;;;;;5032059;28;19919;-50
2022/10/17 08:35:23;;;;;;;;;;;27.30;99.90;;;;;;5031975;28;19905;-50
2022/10/17 08:37:48;;;;;;;;;;;27.30;99.90;;;;;;5031701;28;19912;-49
2022/10/17 08:40:19;;;;;;;;;;;27.30;99.90;;;;;;5030674;28;20155;-49
2022/10/17 08:42:48;;;;;;;;;;;27.40;99.90;;;;;;5030590;28;20276;-49
2022/10/17 08:45:13;;;;;;;;;;;27.40;99.90;;;;;;5032029;28;19936;-49
2022/10/17 08:47:53;;;;;;;;;;;27.40;99.90;;;;;;5031686;28;19963;-49
2022/10/17 08:50:22;;;;;;;;;;;27.40;99.90;;;;;;5031728;28;19905;-49
2022/10/17 08:52:49;;;;;;;;;;;27.40;99.90;;;;;;5031695;28;19909;-49
2022/10/17 08:55:27;;;;;;;;;;;27.40;99.90;;;;;;5031678;28;20348;-50
2022/10/17 08:57:53;;;;;;;;;;;27.40;99.90;;;;;;5031723;28;19937;-50
2022/10/17 09:00:19;;;;;;;;;;;27.40;99.90;;;;;;5031410;28;19979;-49
2022/10/17 09:03:10;;;;;;;;;;;27.40;99.90;;;;;;5046856;28;20008;-49
2022/10/17 09:05:36;;;;;;;;;;;27.50;99.90;;;;;;5031783;28;19916;-49
2022/10/17 09:08:15;;;;;;;;;;;27.50;99.90;;;;;;5046889;28;20099;-49
2022/10/17 09:10:47;;;;;;;;;;;27.50;99.90;;;;;;5031255;28;19912;-49
2022/10/17 09:13:12;;;;;;;;;;;27.40;99.90;;;;;;5031284;28;19928;-49
2022/10/17 09:15:56;;;;;;;;;;;27.50;99.90;;;;;;5031543;28;19941;-50
2022/10/17 09:18:36;;;;;;;;;;;27.50;99.90;;;;;;5031312;28;20269;-49
2022/10/17 09:21:23;;;;;;;;;;;27.50;99.90;;;;;;5031344;28;19909;-50
2022/10/17 09:23:58;;;;;;;;;;;27.50;99.90;;;;;;5031612;28;19905;-49
2022/10/17 09:26:24;;;;;;;;;;;27.40;99.90;;;;;;5031167;28;19905;-50
2022/10/17 09:28:55;;;;;;;;;;;27.50;99.90;;;;;;5031190;28;19909;-49
2022/10/17 09:31:43;;;;;;;;;;;27.50;99.90;;;;;;5031123;28;19905;-49
2022/10/17 09:34:09;;;;;;;;;;;27.50;99.90;;;;;;5028213;28;19905;-50
2022/10/17 09:36:36;;;;;;;;;;;27.50;99.90;;;;;;5031686;28;19912;-50
2022/10/17 09:39:03;;;;;;;;;;;27.50;99.90;;;;;;5031168;28;20008;-49
2022/10/17 09:41:37;;;;;;;;;;;27.60;99.90;;;;;;5031144;28;19912;-49
2022/10/17 09:44:12;;;;;;;;;;;27.60;99.90;;;;;;5031226;28;19972;-49
2022/10/17 09:46:38;;;;;;;;;;;27.60;99.90;;;;;;5031385;28;19912;-55
2022/10/17 09:49:24;;;;;;;;;;;27.60;99.90;;;;;;5032019;28;19905;-50
2022/10/17 09:51:49;;;;;;;;;;;27.70;99.90;;;;;;5034898;28;19913;-49
2022/10/17 09:54:27;;;;;;;;;;;27.70;99.90;;;;;;5050401;28;20140;-51
2022/10/17 09:57:01;;;;;;;;;;;27.70;99.90;;;;;;5035048;28;19905;-49
2022/10/17 09:59:31;;;;;;;;;;;27.80;99.90;;;;;;5034875;28;19913;-49
2022/10/17 10:02:07;;;;;;;;;;;27.80;99.90;;;;;;5035166;28;19935;-50
2022/10/17 10:04:32;;;;;;;;;;;27.80;99.90;;;;;;5033673;28;20278;-49
2022/10/17 10:07:03;;;;;;;;;;;27.80;99.90;;;;;;5034563;28;19905;-49
2022/10/17 10:09:30;;;;;;;;;;;27.80;99.90;;;;;;5034714;28;19912;-49
2022/10/17 10:11:57;;;;;;;;;;;27.80;99.90;;;;;;5034723;28;20357;-50
2022/10/17 10:14:32;;;;;;;;;;;27.80;99.90;;;;;;5034739;28;19959;-49
2022/10/17 10:16:58;;;;;;;;;;;27.80;99.90;;;;;;5034797;28;20007;-49
2022/10/17 10:19:29;;;;;;;;;;;27.80;99.90;;;;;;5034384;28;19959;-50
2022/10/17 10:21:56;;;;;;;;;;;27.90;99.90;;;;;;5034577;28;19905;-49
2022/10/17 10:24:22;;;;;;;;;;;27.90;99.90;;;;;;5034685;28;19905;-49
2022/10/17 10:26:48;;;;;;;;;;;27.90;99.90;;;;;;5034284;28;19915;-49
2022/10/17 10:29:17;;;;;;;;;;;27.90;99.90;;;;;;5034593;28;19912;-50
2022/10/17 10:31:42;;;;;;;;;;;27.90;99.90;;;;;;5034495;28;19932;-49
2022/10/17 10:34:14;;;;;;;;;;;27.90;99.90;;;;;;5034205;28;20368;-49
2022/10/17 10:36:46;;;;;;;;;;;27.90;99.90;;;;;;5034250;28;19912;-50
2022/10/17 10:39:30;;;;;;;;;;;28.00;99.90;;;;;;5034229;28;19960;-50
2022/10/17 10:41:56;;;;;;;;;;;28.00;99.90;;;;;;5032746;28;20357;-50
2022/10/17 10:44:24;;;;;;;;;;;28.00;99.90;;;;;;5034077;28;19992;-50
2022/10/17 10:47:04;;;;;;;;;;;28.10;99.90;;;;;;5033898;28;19915;-50
2022/10/17 10:49:31;;;;;;;;;;;28.10;99.90;;;;;;5034094;28;19905;-49
2022/10/17 10:51:57;;;;;;;;;;;28.10;99.90;;;;;;5034061;28;19905;-49
2022/10/17 10:54:33;;;;;;;;;;;28.10;99.90;;;;;;5033911;28;19917;-50
2022/10/17 10:57:03;;;;;;;;;;;28.10;99.90;;;;;;5033885;28;19909;-50
2022/10/17 10:59:36;;;;;;;;;;;28.10;99.90;;;;;;5033313;28;20287;-50
2022/10/17 11:02:16;;;;;;;;;;;28.10;99.90;;;;;;5033844;28;20254;-50
2022/10/17 11:04:57;;;;;;;;;;;28.10;99.90;;;;;;5034318;28;19909;-50
2022/10/17 11:07:30;;;;;;;;;;;28.10;99.90;;;;;;5033701;28;19905;-50
2022/10/17 11:10:15;;;;;;;;;;;28.10;99.90;;;;;;5033741;28;20329;-50
2022/10/17 11:12:43;;;;;;;;;;;28.20;99.90;;;;;;5049065;28;19997;-50
2022/10/17 11:15:15;;;;;;;;;;;28.20;99.90;;;;;;5033628;28;19912;-50
2022/10/17 11:17:54;;;;;;;;;;;28.20;99.90;;;;;;5033625;28;19908;-50
2022/10/17 11:20:25;;;;;;;;;;;28.30;99.90;;;;;;5033474;28;20074;-50
2022/10/17 11:22:59;;;;;;;;;;;28.30;99.90;;;;;;5033564;28;19905;-50
2022/10/17 11:25:31;;;;;;;;;;;28.30;99.90;;;;;;5033485;28;19958;-50
2022/10/17 11:27:56;;;;;;;;;;;28.40;99.90;;;;;;5033317;28;19936;-50
2022/10/17 11:30:23;;;;;;;;;;;28.40;99.90;;;;;;5033425;28;19940;-50
2022/10/17 11:32:52;;;;;;;;;;;28.50;99.90;;;;;;5033364;28;19909;-51
2022/10/17 11:35:24;;;;;;;;;;;28.50;99.90;;;;;;5033337;28;19905;-49
2022/10/17 11:38:12;;;;;;;;;;;28.50;99.90;;;;;;5048509;28;19913;-50
2022/10/17 11:40:40;;;;;;;;;;;28.60;99.90;;;;;;5033128;28;20285;-50
2022/10/17 11:43:10;;;;;;;;;;;28.60;99.90;;;;;;5032939;28;19996;-50
2022/10/17 11:45:39;;;;;;;;;;;28.60;99.90;;;;;;5032932;28;19928;-50
2022/10/17 11:48:10;;;;;;;;;;;28.70;99.90;;;;;;5033021;28;19939;-50
2022/10/17 11:50:48;;;;;;;;;;;28.70;99.90;;;;;;5032798;28;19951;-49
2022/10/17 11:53:16;;;;;;;;;;;28.80;99.90;;;;;;5032909;28;19905;-50
2022/10/17 11:55:42;;;;;;;;;;;28.80;99.90;;;;;;5032744;28;19905;-50
2022/10/17 11:58:28;;;;;;;;;;;28.80;99.90;;;;;;5032876;28;20375;-49
2022/10/17 12:01:14;;;;;;;;;;;28.80;99.90;;;;;;5032559;28;19945;-50
2022/10/17 12:03:58;;;;;;;;;;;28.90;99.90;;;;;;5032728;28;20403;-50
2022/10/17 12:06:42;;;;;;;;;;;28.90;99.90;;;;;;5032673;28;20003;-50
2022/10/17 12:09:20;;;;;;;;;;;29.00;99.90;;;;;;5032516;28;19908;-49
2022/10/17 12:11:49;;;;;;;;;;;29.00;99.90;;;;;;5031968;28;19932;-50
2022/10/17 12:14:38;;;;;;;;;;;29.00;99.90;;;;;;5032692;28;19905;-49
2022/10/17 12:17:23;;;;;;;;;;;29.00;99.90;;;;;;5028881;28;19923;-50
2022/10/17 12:19:49;;;;;;;;;;;29.10;99.90;;;;;;5028084;28;20357;-50
2022/10/17 12:22:20;;;;;;;;;;;29.10;99.90;;;;;;5032567;28;19905;-50
2022/10/17 12:24:53;;;;;;;;;;;29.10;99.90;;;;;;5031535;28;20004;-51
2022/10/17 12:27:34;;;;;;;;;;;29.20;99.90;;;;;;5032409;28;19912;-50
2022/10/17 12:30:01;;;;;;;;;;;29.20;99.90;;;;;;5032382;28;19912;-50
2022/10/17 12:32:26;;;;;;;;;;;29.20;99.90;;;;;;5032180;28;19988;-50
2022/10/17 12:34:53;;;;;;;;;;;29.30;99.90;;;;;;5031909;28;19940;-50
2022/10/17 12:37:54;;;;;;;;;;;29.30;99.90;;;;;;5032076;28;19912;-50
2022/10/17 12:40:35;;;;;;;;;;;29.30;99.90;;;;;;5009685;28;20398;-51
2022/10/17 12:43:12;;;;;;;;;;;29.30;99.90;;;;;;5029342;28;19909;-50
2022/10/17 12:45:54;;;;;;;;;;;29.40;99.90;;;;;;5031699;28;20269;-50
2022/10/17 12:48:32;;;;;;;;;;;29.40;99.90;;;;;;5032047;28;19909;-50
2022/10/17 12:51:08;;;;;;;;;;;29.40;99.90;;;;;;5031838;28;19905;-49
2022/10/17 12:53:37;;;;;;;;;;;29.40;99.90;;;;;;5031473;28;19944;-50
2022/10/17 12:56:02;;;;;;;;;;;29.50;99.90;;;;;;5031519;28;19913;-50
2022/10/17 12:58:29;;;;;;;;;;;29.40;99.90;;;;;;5031300;28;19905;-50
2022/10/17 13:00:56;;;;;;;;;;;29.50;99.90;;;;;;5031202;28;19917;-50
2022/10/17 13:03:32;;;;;;;;;;;29.50;99.90;;;;;;5031490;28;20412;-51
2022/10/17 13:05:59;;;;;;;;;;;29.60;99.90;;;;;;5031417;28;20003;-50
2022/10/17 13:08:28;;;;;;;;;;;29.60;99.90;;;;;;5031300;28;20344;-49
2022/10/17 13:10:53;;;;;;;;;;;29.60;99.90;;;;;;5031539;28;19905;-49
2022/10/17 13:13:21;;;;;;;;;;;29.60;99.90;;;;;;5031756;28;19912;-49
2022/10/17 13:15:47;;;;;;;;;;;29.60;99.90;;;;;;5031486;28;19974;-49
2022/10/17 13:18:17;;;;;;;;;;;29.70;99.90;;;;;;5031193;28;19954;-49
2022/10/17 13:20:43;;;;;;;;;;;29.70;99.90;;;;;;5031485;28;19931;-49
2022/10/17 13:23:21;;;;;;;;;;;29.70;99.90;;;;;;5031210;28;20253;-49
2022/10/17 13:25:47;;;;;;;;;;;29.70;99.90;;;;;;5031438;28;19912;-49
2022/10/17 13:28:12;;;;;;;;;;;29.80;99.90;;;;;;5031389;28;19909;-49
2022/10/17 13:30:38;;;;;;;;;;;29.80;99.90;;;;;;5031448;28;19909;-49
2022/10/17 13:33:17;;;;;;;;;;;29.80;99.90;;;;;;5031303;28;19905;-49
2022/10/17 13:35:42;;;;;;;;;;;29.80;99.90;;;;;;5031057;28;20518;-49
2022/10/17 13:38:10;;;;;;;;;;;29.80;99.90;;;;;;5031262;28;19912;-50
2022/10/17 13:40:40;;;;;;;;;;;29.90;99.90;;;;;;5031305;28;19924;-50
2022/10/17 13:43:12;;;;;;;;;;;29.90;99.90;;;;;;5031221;28;19905;-49
2022/10/17 13:45:38;;;;;;;;;;;29.90;99.90;;;;;;5031154;28;20049;-49
2022/10/17 13:48:09;;;;;;;;;;;29.90;99.90;;;;;;5031213;28;19992;-49
2022/10/17 13:50:40;;;;;;;;;;;29.90;99.90;;;;;;5031265;28;19905;-49
2022/10/17 13:53:11;;;;;;;;;;;30.00;99.90;;;;;;5031092;28;19905;-48
2022/10/17 13:55:37;;;;;;;;;;;30.00;99.90;;;;;;5031130;28;20339;-49
2022/10/17 13:58:14;;;;;;;;;;;30.00;99.90;;;;;;5031053;28;19984;-49
2022/10/17 14:00:40;;;;;;;;;;;30.00;99.90;;;;;;5030768;28;19924;-49
2022/10/17 14:03:05;;;;;;;;;;;30.10;99.90;;;;;;5031048;28;19905;-50
2022/10/17 14:05:31;;;;;;;;;;;30.10;99.90;;;;;;5031114;28;19911;-49
2022/10/17 14:07:58;;;;;;;;;;;30.10;99.90;;;;;;5031055;28;19905;-49
2022/10/17 14:10:24;;;;;;;;;;;30.10;99.90;;;;;;5031277;28;19905;-49
2022/10/17 14:12:53;;;;;;;;;;;30.10;99.90;;;;;;5046205;28;20379;-49
2022/10/17 14:15:20;;;;;;;;;;;30.10;99.90;;;;;;5030882;28;19909;-49
2022/10/17 14:17:52;;;;;;;;;;;30.20;99.90;;;;;;5030986;28;20384;-50
2022/10/17 14:20:19;;;;;;;;;;;30.20;99.90;;;;;;5030675;28;19917;-50
2022/10/17 14:22:45;;;;;;;;;;;30.20;99.90;;;;;;5030826;28;19905;-49
2022/10/17 14:25:29;;;;;;;;;;;30.30;99.90;;;;;;5030890;28;20384;-51
2022/10/17 14:28:15;;;;;;;;;;;30.30;99.90;;;;;;5031054;28;19974;-50